Time;durP1;ratioP1;P1;durP2;ratioP2;P2;SDS_P1;SDS_P2;PMS_P1;PMS_P2;Temp;Humidity;BMP_temperature;BMP_pressure;BME280_temperature;BME280_humidity;BME280_pressure;Samples;Min_cycle;Max_cycle;Signal;HPM_P1;HPM_P2
2021/06/01 00:01:52;;;;;;;2.07;1.30;;;18.50;48.20;;;;;;5052480;28;20303;-80
2021/06/01 00:04:19;;;;;;;4.00;1.37;;;18.40;48.40;;;;;;5051410;28;20620;-80
2021/06/01 00:06:45;;;;;;;1.90;1.10;;;18.40;48.40;;;;;;5051884;28;20922;-80
2021/06/01 00:09:16;;;;;;;3.00;0.97;;;18.40;48.40;;;;;;5053148;28;20793;-80
2021/06/01 00:11:42;;;;;;;1.93;1.20;;;18.30;48.20;;;;;;5052422;28;20575;-80
2021/06/01 00:14:08;;;;;;;1.50;1.00;;;18.30;48.10;;;;;;5051116;28;20971;-80
2021/06/01 00:16:34;;;;;;;1.97;1.20;;;18.30;48.10;;;;;;5051680;28;20926;-81
2021/06/01 00:19:01;;;;;;;1.50;1.10;;;18.30;48.40;;;;;;5051820;28;20599;-80
2021/06/01 00:21:26;;;;;;;2.10;1.00;;;18.20;48.10;;;;;;5052179;28;20555;-80
2021/06/01 00:23:54;;;;;;;2.20;1.13;;;18.20;48.20;;;;;;5055088;28;21234;-80
2021/06/01 00:26:21;;;;;;;1.60;1.20;;;18.20;48.20;;;;;;5051747;28;20654;-80
2021/06/01 00:28:47;;;;;;;1.80;1.10;;;18.10;48.70;;;;;;5033911;28;21137;-81
2021/06/01 00:31:12;;;;;;;1.73;1.10;;;18.10;48.30;;;;;;5051737;28;20560;-81
2021/06/01 00:33:38;;;;;;;4.13;1.40;;;18.10;48.30;;;;;;5050578;28;20625;-81
2021/06/01 00:36:05;;;;;;;1.93;1.33;;;18.10;48.80;;;;;;5050767;28;20231;-81
2021/06/01 00:38:31;;;;;;;2.37;1.13;;;18.00;49.20;;;;;;5051333;28;20576;-82
2021/06/01 00:40:57;;;;;;;2.00;1.23;;;18.00;48.60;;;;;;5050518;28;20572;-82
2021/06/01 00:43:23;;;;;;;2.70;1.10;;;18.00;48.70;;;;;;5051674;28;20176;-81
2021/06/01 00:45:49;;;;;;;1.93;1.10;;;17.90;49.30;;;;;;5051447;28;20596;-81
2021/06/01 00:48:15;;;;;;;3.60;1.70;;;17.90;48.60;;;;;;5066676;28;20587;-81
2021/06/01 00:50:41;;;;;;;1.77;1.33;;;17.90;48.60;;;;;;5050502;28;20162;-81
2021/06/01 00:53:08;;;;;;;2.00;0.90;;;17.80;48.50;;;;;;5050259;28;20576;-81
2021/06/01 00:55:34;;;;;;;1.90;1.50;;;17.80;48.80;;;;;;5051314;28;20204;-79
2021/06/01 00:58:00;;;;;;;4.97;1.13;;;17.80;48.80;;;;;;5051033;28;20579;-80
2021/06/01 01:03:02;;;;;;;2.63;1.10;;;17.70;48.90;;;;;;5054055;28;20590;-81
2021/06/01 01:06:14;;;;;;;1.80;1.00;;;17.70;48.80;;;;;;5050210;28;20608;-81
2021/06/01 01:08:33;;;;;;;1.27;0.90;;;17.60;49.00;;;;;;5047750;28;20185;-81
2021/06/01 01:11:07;;;;;;;1.90;1.00;;;17.60;48.80;;;;;;5050174;28;20559;-80
2021/06/01 01:13:43;;;;;;;1.50;1.00;;;17.60;48.90;;;;;;5051417;28;20581;-80
2021/06/01 01:16:11;;;;;;;2.77;1.00;;;17.60;49.10;;;;;;5051354;28;20556;-80
2021/06/01 01:18:40;;;;;;;1.50;1.00;;;17.50;48.90;;;;;;5052748;28;20582;-82
2021/06/01 01:21:14;;;;;;;2.60;1.50;;;17.50;49.20;;;;;;5055157;28;20654;-81
2021/06/01 01:23:50;;;;;;;1.60;0.90;;;17.50;49.10;;;;;;5053944;28;20575;-81
2021/06/01 01:26:34;;;;;;;1.40;1.00;;;17.40;49.30;;;;;;5054945;28;20571;-80
2021/06/01 01:29:15;;;;;;;2.80;1.00;;;17.40;49.40;;;;;;5054883;28;20646;-81
2021/06/01 01:32:11;;;;;;;1.53;0.97;;;17.40;49.30;;;;;;5055039;28;20574;-81
2021/06/01 01:34:38;;;;;;;1.90;1.00;;;17.30;49.60;;;;;;5053920;28;21198;-81
2021/06/01 01:37:06;;;;;;;3.13;1.20;;;17.30;49.40;;;;;;5054784;28;20595;-81
2021/06/01 01:39:38;;;;;;;3.00;1.42;;;17.20;49.50;;;;;;5060398;28;20572;-81
2021/06/01 01:42:04;;;;;;;1.33;0.93;;;17.20;49.60;;;;;;5053827;28;20173;-81
2021/06/01 01:44:35;;;;;;;2.13;1.17;;;17.10;50.00;;;;;;5054277;28;20689;-81
2021/06/01 01:48:58;;;;;;;2.60;1.23;;;17.00;50.00;;;;;;5054432;28;20574;-81
2021/06/01 01:49:56;;;;;;;2.30;1.20;;;17.00;49.90;;;;;;5054564;28;20637;-82
2021/06/01 01:52:22;;;;;;;1.50;1.03;;;16.90;50.00;;;;;;5070162;28;20641;-81
2021/06/01 01:54:47;;;;;;;2.17;1.97;;;16.90;50.00;;;;;;5054433;28;20607;-82
2021/06/01 01:57:14;;;;;;;2.10;1.23;;;16.80;50.20;;;;;;5054211;28;20607;-82
2021/06/01 01:59:40;;;;;;;1.85;1.10;;;16.80;50.20;;;;;;5069948;28;20181;-81
2021/06/01 02:02:10;;;;;;;1.50;1.00;;;16.70;50.10;;;;;;5054663;28;20215;-82
2021/06/01 02:04:36;;;;;;;2.17;1.50;;;16.60;50.30;;;;;;5053071;28;20587;-82
2021/06/01 02:07:02;;;;;;;5.63;1.52;;;16.60;50.70;;;;;;5054076;28;21125;-82
2021/06/01 02:09:28;;;;;;;2.70;1.10;;;16.50;50.40;;;;;;5054347;28;20192;-82
2021/06/01 02:11:54;;;;;;;2.40;1.10;;;16.50;50.70;;;;;;5053173;28;20563;-81
2021/06/01 02:14:21;;;;;;;1.90;1.35;;;16.50;51.20;;;;;;5053124;28;20181;-82
2021/06/01 02:16:47;;;;;;;1.50;1.17;;;16.40;50.80;;;;;;5058329;28;20165;-81
2021/06/01 02:19:17;;;;;;;1.85;1.33;;;16.40;51.00;;;;;;5054191;28;20534;-81
2021/06/01 02:24:32;;;;;;;1.60;1.17;;;16.30;51.00;;;;;;5052775;28;20224;-81
2021/06/01 02:27:19;;;;;;;2.60;1.30;;;16.30;51.40;;;;;;5035992;28;20184;-81
2021/06/01 02:30:03;;;;;;;1.85;1.08;;;16.20;51.30;;;;;;5051849;28;20280;-81
2021/06/01 02:32:39;;;;;;;2.63;1.52;;;16.20;52.00;;;;;;5053922;28;20286;-81
2021/06/01 02:35:31;;;;;;;2.45;1.30;;;16.10;51.70;;;;;;5052631;28;20189;-81
2021/06/01 02:38:01;;;;;;;1.98;1.60;;;16.10;51.90;;;;;;5052320;28;20168;-82
2021/06/01 02:40:28;;;;;;;1.60;0.90;;;16.10;51.70;;;;;;5053923;28;20612;-82
2021/06/01 02:42:54;;;;;;;2.92;1.40;;;16.00;51.70;;;;;;5054200;28;20149;-83
2021/06/01 02:45:22;;;;;;;2.22;1.50;;;16.00;51.70;;;;;;5052287;28;20188;-82
2021/06/01 02:47:49;;;;;;;2.40;1.40;;;16.00;51.90;;;;;;5053344;28;20172;-83
2021/06/01 02:50:16;;;;;;;2.22;1.00;;;15.90;51.90;;;;;;5053692;28;20205;-82
2021/06/01 02:52:44;;;;;;;1.80;1.10;;;15.90;52.20;;;;;;5058618;28;20633;-82
2021/06/01 02:55:14;;;;;;;1.88;1.15;;;15.90;52.40;;;;;;5053409;28;20239;-82
2021/06/01 02:57:40;;;;;;;1.92;1.20;;;15.90;52.40;;;;;;5065104;28;20225;-82
2021/06/01 03:00:10;;;;;;;2.97;1.13;;;15.80;52.50;;;;;;5061979;28;20223;-81
2021/06/01 03:02:35;;;;;;;2.35;1.60;;;15.80;52.50;;;;;;5059769;28;20558;-82
2021/06/01 03:05:01;;;;;;;2.17;1.10;;;15.80;52.50;;;;;;5087291;28;20200;-82
2021/06/01 03:07:27;;;;;;;2.43;1.37;;;15.70;52.80;;;;;;5053025;28;20204;-82
2021/06/01 03:09:53;;;;;;;1.80;1.40;;;15.70;52.70;;;;;;5053095;28;20955;-82
2021/06/01 03:12:38;;;;;;;1.50;1.13;;;15.70;53.00;;;;;;5053207;28;20952;-82
2021/06/01 03:15:05;;;;;;;2.13;1.23;;;15.70;52.90;;;;;;5063912;28;20193;-82
2021/06/01 03:17:31;;;;;;;2.20;1.40;;;15.70;53.80;;;;;;5059083;28;20174;-82
2021/06/01 03:19:57;;;;;;;1.80;1.30;;;15.70;53.10;;;;;;5058910;28;20211;-83
2021/06/01 03:22:22;;;;;;;2.20;1.30;;;15.70;53.60;;;;;;5068793;28;20644;-82
2021/06/01 03:24:48;;;;;;;2.17;1.30;;;15.70;53.60;;;;;;5068374;28;20197;-82
2021/06/01 03:27:14;;;;;;;2.50;1.33;;;15.70;53.80;;;;;;5064307;28;20176;-82
2021/06/01 03:29:40;;;;;;;2.47;1.37;;;15.70;53.90;;;;;;5063463;28;20576;-82
2021/06/01 03:32:06;;;;;;;2.07;1.30;;;15.70;54.10;;;;;;5052956;28;20724;-81
2021/06/01 03:34:33;;;;;;;1.65;1.10;;;15.70;53.80;;;;;;5052677;28;20959;-81
2021/06/01 03:36:59;;;;;;;1.70;1.50;;;15.70;53.70;;;;;;5052431;28;20180;-81
2021/06/01 03:39:26;;;;;;;2.30;1.03;;;15.80;53.90;;;;;;5035275;28;20172;-81
2021/06/01 03:41:52;;;;;;;2.63;1.17;;;15.80;53.70;;;;;;5052943;28;20567;-81
2021/06/01 03:44:17;;;;;;;2.00;1.10;;;15.80;53.80;;;;;;5052369;28;20199;-81
2021/06/01 03:46:43;;;;;;;2.20;1.43;;;15.80;53.80;;;;;;5052214;28;20161;-81
2021/06/01 03:49:09;;;;;;;1.70;1.20;;;15.80;53.80;;;;;;5052493;28;20204;-81
2021/06/01 03:51:35;;;;;;;2.33;1.40;;;15.80;53.90;;;;;;5051211;28;20165;-81
2021/06/01 03:54:01;;;;;;;1.93;1.33;;;15.80;53.90;;;;;;5052077;28;20656;-81
2021/06/01 03:56:27;;;;;;;3.08;1.75;;;15.80;54.10;;;;;;5052048;28;21119;-81
2021/06/01 03:58:53;;;;;;;2.50;1.20;;;15.80;54.40;;;;;;5052440;28;20188;-81
2021/06/01 04:01:19;;;;;;;3.90;2.27;;;15.80;54.20;;;;;;5052283;28;20165;-82
2021/06/01 04:03:45;;;;;;;3.17;1.87;;;15.80;54.20;;;;;;5050970;28;20177;-81
2021/06/01 04:06:11;;;;;;;2.45;1.35;;;15.80;54.40;;;;;;5053127;28;20295;-81
2021/06/01 04:08:38;;;;;;;2.83;1.33;;;15.80;54.80;;;;;;5051516;28;20169;-81
2021/06/01 04:11:04;;;;;;;4.00;1.55;;;15.80;54.70;;;;;;5050499;28;20600;-81
2021/06/01 04:13:30;;;;;;;2.83;1.85;;;15.80;54.70;;;;;;5052173;28;20533;-81
2021/06/01 04:15:56;;;;;;;2.43;1.30;;;15.80;55.70;;;;;;5051972;28;20220;-82
2021/06/01 04:18:22;;;;;;;2.87;1.50;;;15.80;55.00;;;;;;5050462;28;20186;-82
2021/06/01 04:20:47;;;;;;;2.15;1.15;;;15.90;55.20;;;;;;5033974;28;20187;-81
2021/06/01 04:23:13;;;;;;;3.03;1.20;;;15.90;55.70;;;;;;5052071;28;20506;-81
2021/06/01 04:25:39;;;;;;;2.20;1.20;;;16.00;55.50;;;;;;5051690;28;20189;-81
2021/06/01 04:28:04;;;;;;;2.20;1.33;;;16.00;55.40;;;;;;5050305;28;20197;-81
2021/06/01 04:30:30;;;;;;;2.53;1.40;;;16.10;55.40;;;;;;5051916;28;20280;-81
2021/06/01 04:32:56;;;;;;;2.43;1.43;;;16.20;56.20;;;;;;5051931;28;20572;-80
2021/06/01 04:35:22;;;;;;;2.75;1.60;;;16.30;55.50;;;;;;5051510;28;20189;-81
2021/06/01 04:37:48;;;;;;;2.80;1.20;;;16.30;55.50;;;;;;5051539;28;20235;-80
2021/06/01 04:40:15;;;;;;;1.80;1.45;;;16.40;55.80;;;;;;5051612;28;20567;-80
2021/06/01 04:42:42;;;;;;;2.33;1.53;;;16.40;55.50;;;;;;5050589;28;20535;-80
2021/06/01 04:45:08;;;;;;;1.87;1.07;;;16.50;55.70;;;;;;5051625;28;20955;-81
2021/06/01 04:47:34;;;;;;;4.50;1.40;;;16.60;55.80;;;;;;5066958;28;20574;-81
2021/06/01 04:50:00;;;;;;;2.00;1.20;;;16.70;56.10;;;;;;5070275;28;20714;-80
2021/06/01 04:52:26;;;;;;;1.93;1.50;;;17.00;56.70;;;;;;5070898;28;20567;-81
2021/06/01 04:54:52;;;;;;;8.13;1.70;;;17.40;57.10;;;;;;5086908;28;20952;-80
2021/06/01 04:57:18;;;;;;;2.03;1.23;;;17.60;56.70;;;;;;5051761;28;20168;-79
2021/06/01 04:59:44;;;;;;;3.67;1.57;;;17.90;56.50;;;;;;5070762;28;20575;-79
2021/06/01 05:02:10;;;;;;;3.13;1.73;;;18.20;56.40;;;;;;5070952;28;20170;-79
2021/06/01 05:04:36;;;;;;;5.80;1.73;;;18.60;56.60;;;;;;5070855;28;20266;-79
2021/06/01 05:07:02;;;;;;;4.30;1.70;;;19.10;56.50;;;;;;5086288;28;20570;-79
2021/06/01 05:09:28;;;;;;;5.53;1.43;;;19.50;55.80;;;;;;5069666;28;20204;-79
2021/06/01 05:11:54;;;;;;;3.90;1.47;;;19.80;55.70;;;;;;5071196;28;21365;-79
2021/06/01 05:14:20;;;;;;;2.67;1.20;;;20.00;55.00;;;;;;5070144;28;21172;-79
2021/06/01 05:16:46;;;;;;;2.13;1.30;;;20.00;54.00;;;;;;5070962;28;20559;-79
2021/06/01 05:19:12;;;;;;;1.73;1.40;;;20.10;54.00;;;;;;5069987;28;20617;-79
2021/06/01 05:21:38;;;;;;;3.50;1.83;;;20.10;53.70;;;;;;5070200;28;21386;-78
2021/06/01 05:24:04;;;;;;;2.00;1.47;;;20.10;53.50;;;;;;5071296;28;22261;-79
2021/06/01 05:26:30;;;;;;;1.70;1.40;;;20.20;53.20;;;;;;5070826;28;20199;-79
2021/06/01 05:28:56;;;;;;;2.23;1.20;;;20.20;53.20;;;;;;5071223;28;20618;-79
2021/06/01 05:33:56;;;;;;;2.10;1.17;;;20.50;53.30;;;;;;5078337;28;21179;-80
2021/06/01 05:36:22;;;;;;;2.73;1.20;;;20.60;53.20;;;;;;5070655;28;20191;-79
2021/06/01 05:38:48;;;;;;;2.53;1.10;;;20.70;53.10;;;;;;5071222;28;20563;-80
2021/06/01 05:41:14;;;;;;;2.17;1.20;;;20.80;53.30;;;;;;5071436;28;20579;-80
2021/06/01 05:43:40;;;;;;;3.27;1.43;;;20.70;52.40;;;;;;5071164;28;20574;-81
2021/06/01 05:46:06;;;;;;;2.80;1.30;;;20.70;52.10;;;;;;5069692;28;20625;-82
2021/06/01 05:48:32;;;;;;;3.90;1.50;;;20.80;52.40;;;;;;5069837;28;21020;-79
2021/06/01 05:50:58;;;;;;;1.77;1.10;;;21.10;53.20;;;;;;5071010;28;20693;-79
2021/06/01 05:53:25;;;;;;;2.07;1.50;;;21.70;53.30;;;;;;5071028;28;20704;-79
2021/06/01 05:55:52;;;;;;;2.90;1.27;;;22.30;53.10;;;;;;5069012;28;20606;-79
2021/06/01 05:58:18;;;;;;;1.90;1.13;;;23.10;53.60;;;;;;5072158;28;20690;-78
2021/06/01 06:00:44;;;;;;;7.13;2.00;;;23.90;53.30;;;;;;5063636;28;20595;-78
2021/06/01 06:03:10;;;;;;;2.17;1.30;;;24.70;52.80;;;;;;5050997;28;20600;-77
2021/06/01 06:05:36;;;;;;;4.43;1.30;;;25.20;50.50;;;;;;5046703;28;20671;-79
2021/06/01 06:08:06;;;;;;;4.40;1.77;;;25.60;50.40;;;;;;5074641;28;20582;-78
2021/06/01 06:10:32;;;;;;;3.93;1.87;;;26.20;50.10;;;;;;5073742;28;20230;-78
2021/06/01 06:12:58;;;;;;;2.80;1.30;;;27.00;50.00;;;;;;5073889;28;20598;-78
2021/06/01 06:15:24;;;;;;;2.47;1.30;;;27.50;48.60;;;;;;5074045;28;20196;-78
2021/06/01 06:18:00;;;;;;;2.90;1.20;;;27.80;46.60;;;;;;5055859;28;20175;-78
2021/06/01 06:20:26;;;;;;;2.90;1.00;;;27.80;46.90;;;;;;5073945;28;20741;-77
2021/06/01 06:22:56;;;;;;;1.80;1.07;;;28.30;47.00;;;;;;5073078;28;20632;-78
2021/06/01 06:25:21;;;;;;;2.20;1.10;;;28.60;45.40;;;;;;5074916;28;20595;-78
2021/06/01 06:27:47;;;;;;;2.53;1.03;;;28.80;44.20;;;;;;5073379;28;20573;-78
2021/06/01 06:30:13;;;;;;;2.00;1.20;;;28.80;43.30;;;;;;5071425;28;20196;-78
2021/06/01 06:32:39;;;;;;;2.53;1.27;;;29.10;43.40;;;;;;5052472;28;20161;-79
2021/06/01 06:35:07;;;;;;;1.50;0.97;;;29.30;42.90;;;;;;5059236;28;21284;-78
2021/06/01 06:37:33;;;;;;;1.63;1.07;;;29.60;43.60;;;;;;5053298;28;20562;-78
2021/06/01 06:40:00;;;;;;;2.40;1.20;;;29.60;41.70;;;;;;5053746;28;20574;-80
2021/06/01 06:42:26;;;;;;;3.23;1.10;;;29.70;42.10;;;;;;5053485;28;20574;-80
2021/06/01 06:44:53;;;;;;;1.53;1.07;;;30.00;42.70;;;;;;5055306;28;20591;-80
2021/06/01 06:49:54;;;;;;;3.00;1.17;;;30.70;42.40;;;;;;5061672;28;20654;-82
2021/06/01 06:52:20;;;;;;;3.27;1.23;;;31.20;42.20;;;;;;5071745;28;20957;-81
2021/06/01 06:54:46;;;;;;;3.37;1.17;;;31.50;40.20;;;;;;5062998;28;20606;-81
2021/06/01 06:57:12;;;;;;;1.60;1.40;;;31.30;39.20;;;;;;5053038;28;20562;-80
2021/06/01 06:59:37;;;;;;;2.27;1.10;;;31.10;38.80;;;;;;5053122;28;20176;-80
2021/06/01 07:02:04;;;;;;;1.70;1.20;;;31.00;38.90;;;;;;5053286;28;20606;-79
2021/06/01 07:04:30;;;;;;;1.70;1.30;;;31.00;38.90;;;;;;5057200;28;20558;-79
2021/06/01 07:06:56;;;;;;;2.00;1.10;;;31.00;39.40;;;;;;5073875;28;20635;-78
2021/06/01 07:09:23;;;;;;;2.83;1.10;;;31.20;39.90;;;;;;5074360;28;20606;-79
2021/06/01 07:11:49;;;;;;;2.60;0.90;;;31.50;39.60;;;;;;5079583;28;20571;-80
2021/06/01 07:14:18;;;;;;;1.87;1.40;;;31.80;39.90;;;;;;5072417;28;20586;-79
2021/06/01 07:16:44;;;;;;;3.00;1.40;;;32.30;39.70;;;;;;5072284;28;20573;-79
2021/06/01 07:19:11;;;;;;;3.60;1.40;;;32.50;39.60;;;;;;5088734;28;20631;-79
2021/06/01 07:21:37;;;;;;;1.70;1.20;;;33.10;38.70;;;;;;5072628;28;20569;-80
2021/06/01 07:24:05;;;;;;;1.70;1.40;;;33.00;38.00;;;;;;5071384;28;20585;-80
2021/06/01 07:26:31;;;;;;;1.57;0.90;;;33.10;38.20;;;;;;5072228;28;20578;-79
2021/06/01 07:28:59;;;;;;;1.80;0.90;;;33.60;38.80;;;;;;5072338;28;20623;-78
2021/06/01 07:31:25;;;;;;;1.43;1.03;;;34.20;38.90;;;;;;5069736;28;20175;-78
2021/06/01 07:33:51;;;;;;;1.40;1.10;;;34.80;37.80;;;;;;5072160;28;20581;-77
2021/06/01 07:36:17;;;;;;;4.13;1.43;;;35.00;37.30;;;;;;5072305;28;20172;-78
2021/06/01 07:38:44;;;;;;;1.30;1.03;;;35.20;36.80;;;;;;5072318;28;20960;-78
2021/06/01 07:41:10;;;;;;;1.83;0.90;;;35.40;35.90;;;;;;5072273;28;20581;-79
2021/06/01 07:43:36;;;;;;;2.70;1.13;;;35.30;35.00;;;;;;5072295;28;20563;-78
2021/06/01 07:46:03;;;;;;;1.40;1.00;;;35.40;35.50;;;;;;5072268;28;20184;-78
2021/06/01 07:48:33;;;;;;;3.77;1.10;;;35.40;35.20;;;;;;5055006;28;20666;-78
2021/06/01 07:50:59;;;;;;;2.03;1.00;;;35.10;34.30;;;;;;5072892;28;20566;-78
2021/06/01 07:53:25;;;;;;;3.07;1.33;;;35.00;34.90;;;;;;5071622;28;20584;-78
2021/06/01 07:55:52;;;;;;;2.20;1.20;;;35.20;35.10;;;;;;5072333;28;20555;-78
2021/06/01 07:58:19;;;;;;;1.73;0.97;;;35.70;35.40;;;;;;5071468;28;20178;-77
2021/06/01 08:00:45;;;;;;;2.23;1.00;;;36.20;35.40;;;;;;5073124;28;20614;-77
2021/06/01 08:03:11;;;;;;;1.47;1.10;;;36.60;35.10;;;;;;5073490;28;20566;-77
2021/06/01 08:05:36;;;;;;;5.43;1.20;;;36.80;34.40;;;;;;5080609;28;21272;-77
2021/06/01 08:08:02;;;;;;;2.53;1.10;;;36.80;33.60;;;;;;5054309;28;20657;-77
2021/06/01 08:10:28;;;;;;;1.60;0.90;;;37.00;33.80;;;;;;5071293;28;20225;-78
2021/06/01 08:12:54;;;;;;;1.67;1.20;;;37.00;33.30;;;;;;5073077;28;20297;-78
2021/06/01 08:15:22;;;;;;;2.40;0.90;;;37.20;32.80;;;;;;5072551;28;20188;-77
2021/06/01 08:17:52;;;;;;;1.50;1.00;;;37.00;32.70;;;;;;5072544;28;20533;-78
2021/06/01 08:20:29;;;;;;;1.50;0.83;;;37.10;32.30;;;;;;5070489;28;20674;-78
2021/06/01 08:22:56;;;;;;;2.10;1.10;;;37.00;32.10;;;;;;5071982;28;20587;-77
2021/06/01 08:25:22;;;;;;;1.43;0.90;;;36.90;31.50;;;;;;5072257;28;21212;-77
2021/06/01 08:27:48;;;;;;;1.40;0.90;;;36.90;31.70;;;;;;5069705;28;20921;-77
2021/06/01 08:30:14;;;;;;;1.20;0.80;;;36.70;32.30;;;;;;5071410;28;20655;-77
2021/06/01 08:32:40;;;;;;;1.60;0.80;;;36.80;31.50;;;;;;5071885;28;20612;-77
2021/06/01 08:35:07;;;;;;;2.07;1.00;;;37.00;31.10;;;;;;5070337;28;20598;-77
2021/06/01 08:37:32;;;;;;;1.60;0.80;;;36.70;30.00;;;;;;5070261;28;20608;-77
2021/06/01 08:39:58;;;;;;;2.57;0.83;;;36.50;29.70;;;;;;5071450;28;20614;-77
2021/06/01 08:42:24;;;;;;;1.27;0.80;;;36.40;30.00;;;;;;5071525;28;20602;-79
2021/06/01 08:44:51;;;;;;;2.03;0.80;;;36.40;30.40;;;;;;5070800;28;20215;-80
2021/06/01 08:47:20;;;;;;;1.30;0.77;;;36.60;30.40;;;;;;5070794;28;20937;-80
2021/06/01 08:49:48;;;;;;;1.20;0.80;;;36.50;30.10;;;;;;5072334;28;20574;-79
2021/06/01 08:52:15;;;;;;;2.10;0.80;;;36.70;30.40;;;;;;5070380;28;20570;-79
2021/06/01 08:54:45;;;;;;;1.40;1.17;;;36.70;30.30;;;;;;5070278;28;20617;-79
2021/06/01 08:57:11;;;;;;;2.60;0.80;;;36.70;29.80;;;;;;5071106;28;20665;-79
2021/06/01 08:59:36;;;;;;;2.53;0.70;;;36.70;29.70;;;;;;5070268;28;20732;-79
2021/06/01 09:02:03;;;;;;;1.40;0.80;;;36.70;30.00;;;;;;5075865;28;20215;-79
2021/06/01 09:04:52;;;;;;;1.80;0.83;;;37.00;30.00;;;;;;5070830;28;20202;-80
2021/06/01 09:07:30;;;;;;;3.57;0.97;;;37.50;29.70;;;;;;5070323;28;20579;-80
2021/06/01 09:10:13;;;;;;;2.23;0.80;;;37.50;29.00;;;;;;5066237;28;20601;-80
2021/06/01 09:13:21;;;;;;;2.03;0.87;;;37.50;29.20;;;;;;5061438;28;20593;-80
2021/06/01 09:21:46;;;;;;;1.30;0.80;;;37.20;28.80;;;;;;5070904;28;20589;-80
2021/06/01 09:24:12;;;;;;;2.70;0.83;;;37.40;27.80;;;;;;5071027;28;20595;-80
2021/06/01 09:29:29;;;;;;;1.30;0.70;;;36.80;27.90;;;;;;5053083;28;20647;-80
2021/06/01 09:32:09;;;;;;;2.90;0.90;;;36.40;27.90;;;;;;5071144;28;20577;-81
2021/06/01 09:34:55;;;;;;;1.53;0.90;;;35.90;27.90;;;;;;5069783;28;20596;-80
2021/06/01 09:37:26;;;;;;;1.27;0.80;;;35.80;28.30;;;;;;5070637;28;20619;-80
2021/06/01 09:40:21;;;;;;;2.20;1.30;;;35.80;28.40;;;;;;5061878;28;20618;-80
2021/06/01 09:42:52;;;;;;;1.60;0.80;;;36.20;28.90;;;;;;5070242;28;20601;-80
2021/06/01 09:45:22;;;;;;;1.40;0.80;;;36.50;28.80;;;;;;5090533;28;20590;-80
2021/06/01 09:47:56;;;;;;;1.53;0.70;;;36.60;28.00;;;;;;5073999;28;20566;-80
2021/06/01 09:50:33;;;;;;;2.70;1.00;;;36.40;27.80;;;;;;5075209;28;20927;-80
2021/06/01 09:53:03;;;;;;;2.07;1.07;;;36.30;27.90;;;;;;5073205;28;21199;-80
2021/06/01 09:57:57;;;;;;;2.13;0.90;;;36.10;27.60;;;;;;5073771;28;20624;-79
2021/06/01 10:00:26;;;;;;;1.30;0.70;;;36.20;27.90;;;;;;5073344;28;20614;-79
2021/06/01 10:02:57;;;;;;;1.93;0.80;;;36.40;28.20;;;;;;5072974;28;21402;-79
2021/06/01 10:05:24;;;;;;;1.50;0.80;;;36.80;28.50;;;;;;5074192;28;20611;-79
2021/06/01 10:07:53;;;;;;;2.13;0.80;;;37.10;28.90;;;;;;5072638;28;20940;-80
2021/06/01 10:10:24;;;;;;;3.03;0.90;;;37.10;27.30;;;;;;5073523;28;20628;-80
2021/06/01 10:12:52;;;;;;;1.10;0.70;;;37.00;27.70;;;;;;5056268;28;20570;-80
2021/06/01 10:15:21;;;;;;;1.53;0.93;;;37.20;27.80;;;;;;5077113;28;20594;-80
2021/06/01 10:17:48;;;;;;;1.57;0.80;;;37.30;27.90;;;;;;5076676;28;20598;-80
2021/06/01 10:20:15;;;;;;;3.13;1.00;;;37.60;28.10;;;;;;5072987;28;20966;-80
2021/06/01 10:22:41;;;;;;;1.60;1.03;;;37.70;27.60;;;;;;5073158;28;21150;-81
2021/06/01 10:25:09;;;;;;;2.40;0.70;;;37.50;27.30;;;;;;5072412;28;20662;-79
2021/06/01 10:27:35;;;;;;;1.93;1.00;;;37.30;27.30;;;;;;5072406;28;20181;-80
2021/06/01 10:30:01;;;;;;;3.30;0.90;;;37.40;27.50;;;;;;5073658;28;20603;-80
2021/06/01 10:32:29;;;;;;;1.40;0.90;;;37.30;27.40;;;;;;5073569;28;20570;-80
2021/06/01 10:34:56;;;;;;;1.40;1.07;;;36.90;27.20;;;;;;5073722;28;20605;-80
2021/06/01 10:52:00;;;;;;;1.40;0.90;;;36.90;28.30;;;;;;5065393;28;20594;-80
2021/06/01 10:54:38;;;;;;;1.30;0.80;;;36.80;27.80;;;;;;5071966;28;20638;-80
2021/06/01 10:57:09;;;;;;;1.27;1.00;;;36.60;27.70;;;;;;5071934;28;20573;-80
2021/06/01 10:59:53;;;;;;;1.47;0.90;;;36.40;27.60;;;;;;5072988;28;20621;-79
2021/06/01 11:02:20;;;;;;;1.50;0.80;;;36.20;28.20;;;;;;5072099;28;20567;-80
2021/06/01 11:05:16;;;;;;;1.37;0.77;;;36.10;27.90;;;;;;5066388;28;20607;-80
2021/06/01 11:07:51;;;;;;;1.50;0.90;;;35.80;27.80;;;;;;5053161;28;20993;-80
2021/06/01 11:10:45;;;;;;;1.70;1.10;;;35.50;27.60;;;;;;5053503;28;20575;-80
2021/06/01 11:13:40;;;;;;;1.30;0.80;;;35.00;27.10;;;;;;5050322;28;20595;-80
2021/06/01 11:16:08;;;;;;;3.47;0.90;;;34.80;27.70;;;;;;5052961;28;20989;-80
2021/06/01 11:18:37;;;;;;;1.50;0.90;;;34.80;28.40;;;;;;5052782;28;20573;-80
2021/06/01 11:21:12;;;;;;;1.30;0.70;;;34.90;28.40;;;;;;5051680;28;20569;-80
2021/06/01 11:24:04;;;;;;;1.70;0.97;;;34.90;28.10;;;;;;5035091;28;20613;-80
2021/06/01 11:35:22;;;;;;;1.40;0.90;;;33.70;27.50;;;;;;5051584;28;20592;-80
2021/06/01 11:38:11;;;;;;;1.47;1.07;;;33.40;27.80;;;;;;5051863;28;20875;-80
2021/06/01 11:43:12;;;;;;;1.50;0.80;;;33.40;28.60;;;;;;5052891;28;20574;-79
2021/06/01 11:45:52;;;;;;;3.30;0.80;;;33.30;28.00;;;;;;5055339;28;20599;-79
2021/06/01 11:51:24;;;;;;;1.60;1.00;;;33.20;28.30;;;;;;5052952;28;20676;-79
2021/06/01 11:54:08;;;;;;;1.70;0.80;;;33.20;28.60;;;;;;5030236;28;20633;-79
2021/06/01 11:56:44;;;;;;;3.03;1.27;;;33.20;28.70;;;;;;5037401;28;20971;-79
2021/06/01 12:02:16;;;;;;;2.53;0.90;;;33.00;28.40;;;;;;5054900;28;21019;-80
2021/06/01 12:04:54;;;;;;;1.50;1.00;;;32.80;28.40;;;;;;5073739;28;20614;-80
2021/06/01 12:18:32;;;;;;;1.70;1.40;;;31.90;28.70;;;;;;5071705;28;21136;-81
2021/06/01 12:20:58;;;;;;;3.10;1.20;;;31.80;28.90;;;;;;5070843;28;21020;-81
2021/06/01 12:23:43;;;;;;;1.53;1.00;;;31.70;29.00;;;;;;5071172;28;20567;-82
2021/06/01 12:32:27;;;;;;;3.43;1.03;;;31.30;29.10;;;;;;5070945;28;20603;-81
2021/06/01 13:09:13;;;;;;;1.30;0.80;;;28.80;30.40;;;;;;5069482;28;20941;-82
2021/06/01 13:39:44;;;;;;;3.00;0.90;;;28.30;31.70;;;;;;5074618;28;20566;-80
2021/06/01 13:48:46;;;;;;;2.07;1.00;;;28.40;31.70;;;;;;5066491;28;20674;-80
2021/06/01 13:50:58;;;;;;;2.83;1.00;;;28.50;31.70;;;;;;5050073;28;20639;-81
2021/06/01 14:15:24;;;;;;;1.83;1.23;;;28.40;32.20;;;;;;5053889;28;20950;-82
2021/06/01 14:36:58;;;;;;;2.30;1.20;;;28.30;32.40;;;;;;5057749;28;21374;-83
2021/06/01 14:57:01;;;;;;;2.93;1.07;;;28.30;32.50;;;;;;5079225;28;20599;-85
2021/06/01 15:28:41;;;;;;;1.50;0.90;;;28.40;32.10;;;;;;5071506;28;20578;-78
2021/06/01 15:53:37;;;;;;;2.47;0.90;;;28.50;31.80;;;;;;5072777;28;20594;-78
2021/06/01 16:29:36;;;;;;;1.30;1.00;;;28.40;32.50;;;;;;5071885;28;20554;-79
2021/06/01 16:29:47;;;;;;;1.40;1.10;;;28.30;32.60;;;;;;5071057;28;20612;-79
2021/06/01 17:05:22;;;;;;;2.00;0.80;;;27.90;33.70;;;;;;5070711;28;20955;-79
2021/06/01 17:13:09;;;;;;;2.47;1.00;;;27.90;33.80;;;;;;5070356;28;20571;-79
2021/06/01 17:15:40;;;;;;;1.60;1.20;;;28.00;33.80;;;;;;5071556;28;20587;-79
2021/06/01 17:18:15;;;;;;;1.43;0.93;;;28.00;33.90;;;;;;5071004;28;20634;-78
2021/06/01 17:36:45;;;;;;;2.13;1.10;;;27.70;34.10;;;;;;5070909;28;20559;-78
2021/06/01 17:39:11;;;;;;;1.50;0.97;;;27.70;34.30;;;;;;5070163;28;20602;-79
2021/06/01 17:41:38;;;;;;;1.77;1.00;;;27.70;34.40;;;;;;5069828;28;20590;-79
2021/06/01 17:44:05;;;;;;;2.43;1.20;;;27.70;34.60;;;;;;5071238;28;20168;-79
2021/06/01 17:46:36;;;;;;;4.27;0.90;;;27.70;34.50;;;;;;5070074;28;20582;-78
2021/06/01 17:49:07;;;;;;;1.80;1.20;;;27.60;34.50;;;;;;5074155;28;20909;-79
2021/06/01 17:51:35;;;;;;;2.37;1.00;;;27.60;34.60;;;;;;5071269;28;20602;-79
2021/06/01 17:54:04;;;;;;;1.50;1.00;;;27.60;34.60;;;;;;5054166;28;20919;-80
2021/06/01 17:56:31;;;;;;;4.47;1.03;;;27.50;34.60;;;;;;5072056;28;20559;-80
2021/06/01 17:58:58;;;;;;;2.10;1.20;;;27.40;34.50;;;;;;5071185;28;20551;-80
2021/06/01 18:01:27;;;;;;;1.97;1.20;;;27.40;34.60;;;;;;5057824;28;20575;-80
2021/06/01 18:06:37;;;;;;;1.80;1.50;;;27.20;34.80;;;;;;5074112;28;20574;-80
2021/06/01 18:09:12;;;;;;;3.77;1.53;;;27.10;34.90;;;;;;5073871;28;20571;-80
2021/06/01 19:50:27;;;;;;;4.80;4.23;;;25.00;37.10;;;;;;5086671;28;20614;-79
2021/06/01 19:52:57;;;;;;;4.63;2.90;;;24.90;37.20;;;;;;5091318;28;20590;-78
2021/06/01 19:55:26;;;;;;;2.73;2.13;;;24.80;37.10;;;;;;5083188;28;20618;-79
2021/06/01 19:57:53;;;;;;;4.40;3.17;;;24.70;37.20;;;;;;5078160;28;21075;-80
2021/06/01 20:00:20;;;;;;;3.03;2.73;;;24.60;37.20;;;;;;5073244;28;20930;-80
2021/06/01 20:02:46;;;;;;;3.10;2.20;;;24.50;37.30;;;;;;5057434;28;20919;-79
2021/06/01 20:05:15;;;;;;;3.65;2.28;;;24.50;37.40;;;;;;5060988;28;20726;-79
2021/06/01 20:07:42;;;;;;;3.60;2.47;;;24.30;38.40;;;;;;5074804;28;20177;-79
2021/06/01 20:10:10;;;;;;;2.40;1.70;;;24.20;37.90;;;;;;5077284;28;20614;-80
2021/06/01 20:12:37;;;;;;;1.83;1.63;;;24.20;38.10;;;;;;5078427;28;20905;-81
2021/06/01 20:15:05;;;;;;;10.23;1.90;;;24.00;37.90;;;;;;5072020;28;20606;-80